Time;durP1;ratioP1;P1;durP2;ratioP2;P2;SDS_P1;SDS_P2;PMS_P1;PMS_P2;Temp;Humidity;BMP_temperature;BMP_pressure;BME280_temperature;BME280_humidity;BME280_pressure;Samples;Min_cycle;Max_cycle;Signal;HPM_P1;HPM_P2
2022/09/07 00:22:34;;;;;;;5.15;1.75;;;;;;;17.91;45.72;100940.84;5063780;27;20056;-87
2022/09/07 00:25:04;;;;;;;3.10;1.60;;;;;;;17.89;45.62;100935.66;5028329;28;20135;-89
2022/09/07 00:32:50;;;;;;;2.75;1.63;;;;;;;17.77;45.79;100941.16;5006955;28;20061;-89
2022/09/07 01:50:21;;;;;;;6.35;1.50;;;;;;;16.59;49.72;100922.31;5069161;28;20054;-87
2022/09/07 01:53:14;;;;;;;4.70;2.00;;;;;;;16.62;49.12;100910.63;5061073;28;20444;-89
2022/09/07 01:56:35;;;;;;;6.53;1.80;;;;;;;16.62;49.42;100918.59;5033239;28;20453;-88
2022/09/07 02:03:05;;;;;;;9.30;1.75;;;;;;;16.59;49.05;100908.19;5062396;28;20131;-88
2022/09/07 02:13:59;;;;;;;3.88;1.90;;;;;;;16.53;49.56;100888.28;4944902;28;20150;-86
2022/09/07 02:39:00;;;;;;;5.82;1.90;;;;;;;16.31;50.00;100893.59;5021926;28;20111;-87
2022/09/07 02:42:02;;;;;;;5.03;2.17;;;;;;;16.22;50.58;100904.94;5006929;28;20141;-85
2022/09/07 04:09:19;;;;;;;4.55;2.35;;;;;;;15.67;52.66;100846.34;5066057;28;20131;-87
2022/09/07 04:21:18;;;;;;;3.70;2.08;;;;;;;15.66;51.76;100834.84;5069815;28;20043;-87
2022/09/07 04:28:11;;;;;;;4.30;2.15;;;;;;;15.58;53.27;100831.06;5078719;27;20082;-86
2022/09/07 04:31:47;;;;;;;6.72;2.42;;;;;;;15.47;54.25;100837.19;5040377;28;20052;-87
2022/09/07 04:38:41;;;;;;;7.90;2.78;;;;;;;15.47;52.95;100837.19;5046631;28;20124;-91
2022/09/07 04:41:23;;;;;;;6.13;2.75;;;;;;;15.57;52.88;100842.66;5022565;28;20065;-90
2022/09/07 04:43:57;;;;;;;6.55;2.67;;;;;;;15.60;52.83;100840.63;5018228;28;20124;-88
2022/09/07 04:46:48;;;;;;;6.25;3.08;;;;;;;15.69;52.88;100844.41;5063589;28;20045;-90
2022/09/07 04:49:33;;;;;;;6.50;2.78;;;;;;;15.74;52.68;100839.59;5047822;28;20087;-91
2022/09/07 04:52:11;;;;;;;6.35;2.53;;;;;;;15.63;54.14;100845.69;5063739;28;20197;-92
2022/09/07 04:54:54;;;;;;;5.50;2.40;;;;;;;15.51;53.21;100838.66;5062293;28;20136;-87
2022/09/07 04:57:25;;;;;;;9.50;2.50;;;;;;;15.55;53.91;100847.25;5054534;28;20050;-89
2022/09/07 05:00:03;;;;;;;4.53;2.40;;;;;;;15.51;53.40;100849.28;5061634;28;20068;-89
2022/09/07 05:02:34;;;;;;;5.22;2.33;;;;;;;15.54;53.31;100845.56;5061737;28;20365;-90
2022/09/07 05:05:07;;;;;;;5.60;2.45;;;;;;;15.61;53.10;100838.81;5047715;28;20279;-87
2022/09/07 05:07:39;;;;;;;6.43;2.50;;;;;;;15.60;53.85;100837.13;5054100;28;20112;-88
2022/09/07 05:10:14;;;;;;;4.60;2.63;;;;;;;15.50;53.91;100836.13;5064998;28;20139;-87
2022/09/07 05:12:50;;;;;;;7.68;2.40;;;;;;;15.48;53.04;100841.53;5049915;28;20552;-89
2022/09/07 05:15:28;;;;;;;4.85;2.45;;;;;;;15.52;53.44;100839.50;5043474;28;20072;-91
2022/09/07 05:17:57;;;;;;;6.72;2.30;;;;;;;15.53;53.35;100839.38;5042129;28;20048;-87
2022/09/07 05:20:25;;;;;;;7.10;2.55;;;;;;;15.57;52.91;100838.19;5043092;28;20066;-87
2022/09/07 05:23:00;;;;;;;11.85;2.70;;;;;;;15.62;53.66;100836.03;5047433;28;20055;-86
2022/09/07 05:25:45;;;;;;;10.73;2.63;;;;;;;15.60;53.31;100835.31;5044515;28;20052;-87
2022/09/07 05:28:15;;;;;;;9.18;2.65;;;;;;;15.65;53.36;100837.63;5096452;28;20464;-85
2022/09/07 05:30:46;;;;;;;7.68;3.00;;;;;;;15.66;53.34;100826.06;5062072;28;20146;-89
2022/09/07 05:33:45;;;;;;;6.15;2.60;;;;;;;15.58;54.27;100825.75;5048248;28;20051;-89
2022/09/07 05:36:42;;;;;;;10.68;3.38;;;;;;;15.62;54.00;100824.56;5053311;28;20431;-86
2022/09/07 05:39:15;;;;;;;12.02;2.85;;;;;;;15.59;54.38;100827.47;5016145;28;20045;-86
2022/09/07 05:41:43;;;;;;;10.07;2.75;;;;;;;15.64;53.94;100834.13;5052802;28;20041;-86
2022/09/07 05:44:22;;;;;;;8.43;2.72;;;;;;;15.60;55.11;100830.00;5029220;28;20748;-88
2022/09/07 05:47:10;;;;;;;7.65;2.67;;;;;;;15.62;55.00;100827.22;5053210;28;20064;-88
2022/09/07 05:49:41;;;;;;;6.85;2.70;;;;;;;15.59;54.69;100822.16;5068597;28;20064;-87
2022/09/07 05:52:14;;;;;;;11.10;2.78;;;;;;;15.59;56.00;100825.66;5039049;28;20052;-86
2022/09/07 05:54:42;;;;;;;6.60;2.78;;;;;;;15.61;54.64;100834.34;5022630;28;20124;-87
2022/09/07 05:57:13;;;;;;;11.65;3.30;;;;;;;15.70;54.40;100830.16;5025106;28;20044;-86
2022/09/07 05:59:44;;;;;;;7.57;3.10;;;;;;;15.71;54.55;100834.50;5021969;28;20044;-86
2022/09/07 06:02:14;;;;;;;4.75;2.78;;;;;;;15.78;54.55;100838.38;5025394;28;20048;-85
2022/09/07 06:04:47;;;;;;;6.32;2.97;;;;;;;15.88;53.91;100834.03;5034875;28;20056;-86
2022/09/07 06:07:16;;;;;;;8.32;2.92;;;;;;;15.98;53.86;100825.34;5033474;28;20053;-87
2022/09/07 06:09:52;;;;;;;11.88;3.03;;;;;;;15.92;55.08;100824.88;5055597;28;20057;-87
2022/09/07 06:12:46;;;;;;;8.68;3.10;;;;;;;15.92;55.81;100827.53;5046323;28;20045;-87
2022/09/07 06:15:18;;;;;;;5.63;2.63;;;;;;;15.98;54.74;100820.88;5054015;28;20048;-87
2022/09/07 06:17:54;;;;;;;8.15;2.42;;;;;;;16.08;54.56;100827.19;5038554;28;20119;-87
2022/09/07 06:20:30;;;;;;;6.68;3.00;;;;;;;16.16;54.49;100834.53;5040633;28;20041;-87
2022/09/07 06:23:06;;;;;;;5.53;2.78;;;;;;;16.18;54.51;100841.44;5037268;28;20091;-86
2022/09/07 06:25:48;;;;;;;8.77;2.97;;;;;;;16.26;54.98;100840.81;5053214;28;20083;-93
2022/09/07 06:28:19;;;;;;;7.95;2.97;;;;;;;16.24;55.15;100831.28;5018024;28;20457;-90
2022/09/07 06:30:52;;;;;;;8.48;3.67;;;;;;;16.26;54.46;100830.22;5032173;28;20052;-91
2022/09/07 06:33:22;;;;;;;8.75;3.20;;;;;;;16.31;54.18;100824.53;5047384;28;20467;-89
2022/09/07 06:36:00;;;;;;;6.90;3.25;;;;;;;16.35;54.61;100826.81;5028148;28;20519;-88
2022/09/07 06:38:32;;;;;;;10.93;3.10;;;;;;;16.41;54.85;100825.47;5021193;28;20045;-89
2022/09/07 06:41:13;;;;;;;7.65;3.20;;;;;;;16.48;54.43;100817.84;5072922;28;20059;-89
2022/09/07 06:44:06;;;;;;;6.95;3.17;;;;;;;16.57;54.02;100820.63;5050959;28;20044;-89
2022/09/07 06:46:38;;;;;;;9.13;3.10;;;;;;;16.65;53.92;100826.13;5050205;28;20053;-85
2022/09/07 06:49:26;;;;;;;7.57;3.38;;;;;;;16.70;54.57;100826.59;5052464;28;20061;-88
2022/09/07 06:52:03;;;;;;;9.23;4.88;;;;;;;16.71;54.35;100830.13;5045933;28;20044;-87
2022/09/07 06:54:33;;;;;;;4.88;2.88;;;;;;;16.73;55.00;100825.56;5048350;28;20120;-88
2022/09/07 06:57:22;;;;;;;8.18;3.25;;;;;;;16.78;54.67;100833.16;5074637;28;20097;-88
2022/09/07 06:59:52;;;;;;;6.53;2.97;;;;;;;16.82;54.52;100829.28;5072303;28;20033;-89
2022/09/07 07:02:21;;;;;;;10.85;3.28;;;;;;;16.89;54.69;100823.34;5044135;28;20037;-89
2022/09/07 07:04:52;;;;;;;8.70;2.90;;;;;;;16.93;54.31;100813.25;5044398;28;20052;-89
2022/09/07 07:07:23;;;;;;;9.02;3.10;;;;;;;16.98;54.28;100815.56;5039826;28;20053;-90
2022/09/07 07:09:51;;;;;;;7.10;3.38;;;;;;;17.01;53.96;100805.50;5037241;28;20044;-90
2022/09/07 07:12:19;;;;;;;8.50;3.53;;;;;;;17.07;53.66;100799.69;5024639;28;20052;-90
2022/09/07 07:14:45;;;;;;;8.43;3.22;;;;;;;17.09;55.45;100803.06;5054014;28;20033;-88
2022/09/07 07:17:15;;;;;;;7.45;3.92;;;;;;;17.11;55.15;100794.94;5010463;28;20104;-90
2022/09/07 07:19:43;;;;;;;7.28;3.85;;;;;;;17.17;54.92;100797.94;5039366;28;20048;-90
2022/09/07 07:22:10;;;;;;;9.07;3.65;;;;;;;17.27;54.71;100799.84;5026671;28;20059;-89
2022/09/07 07:24:58;;;;;;;9.02;3.38;;;;;;;17.34;54.45;100803.69;5034898;28;20045;-89
2022/09/07 07:27:25;;;;;;;7.05;2.90;;;;;;;17.35;54.52;100800.03;5045755;28;20518;-90
2022/09/07 07:29:53;;;;;;;10.85;4.00;;;;;;;17.40;54.67;100800.47;5027264;28;20048;-90
2022/09/07 07:32:21;;;;;;;7.07;3.53;;;;;;;17.41;55.47;100788.84;5044765;28;20068;-89
2022/09/07 07:34:49;;;;;;;6.88;3.10;;;;;;;17.46;54.69;100779.50;5028958;28;20056;-89
2022/09/07 07:37:35;;;;;;;12.52;3.92;;;;;;;17.57;55.50;100788.41;5042452;28;20087;-88
2022/09/07 07:41:16;;;;;;;8.68;4.22;;;;;;;17.61;55.23;100797.81;5070173;28;20098;-89
2022/09/07 07:44:08;;;;;;;7.75;3.38;;;;;;;17.69;54.82;100801.47;5040474;28;20407;-89
2022/09/07 07:46:36;;;;;;;6.13;3.13;;;;;;;17.79;54.42;100800.75;5050171;28;20066;-87
2022/09/07 07:49:08;;;;;;;10.88;3.97;;;;;;;17.93;55.00;100805.72;5030591;28;20147;-88
2022/09/07 07:51:41;;;;;;;14.68;3.80;;;;;;;18.02;54.84;100804.06;5036127;28;20075;-87
2022/09/07 07:54:23;;;;;;;6.72;3.70;;;;;;;18.13;54.45;100796.81;5030292;28;20052;-89
2022/09/07 07:56:50;;;;;;;7.88;2.97;;;;;;;18.23;54.66;100796.84;5037858;28;20067;-88
2022/09/07 07:59:20;;;;;;;8.60;3.47;;;;;;;18.28;54.70;100796.44;5057585;28;20040;-87
2022/09/07 08:01:48;;;;;;;6.97;3.55;;;;;;;18.30;54.61;100786.50;5041263;28;20029;-86
2022/09/07 08:04:16;;;;;;;6.90;3.58;;;;;;;18.31;54.87;100782.84;5023674;28;20052;-87
2022/09/07 08:06:43;;;;;;;6.53;3.67;;;;;;;18.32;55.17;100776.53;5045571;28;20287;-87
2022/09/07 08:09:11;;;;;;;10.98;4.05;;;;;;;18.37;55.12;100782.28;5059304;28;20040;-89
2022/09/07 08:11:39;;;;;;;7.53;3.30;;;;;;;18.42;55.38;100785.41;5064653;28;20037;-89
2022/09/07 08:14:07;;;;;;;5.45;3.33;;;;;;;18.51;54.81;100787.25;5052173;28;20040;-88
2022/09/07 08:16:36;;;;;;;8.02;3.42;;;;;;;18.58;54.50;100791.03;5046004;28;20086;-89
2022/09/07 08:19:05;;;;;;;10.43;4.20;;;;;;;18.67;54.41;100786.69;5044981;28;20151;-91
2022/09/07 08:21:33;;;;;;;11.00;3.78;;;;;;;18.76;54.07;100796.56;5053454;28;20028;-90
2022/09/07 08:24:02;;;;;;;12.68;3.88;;;;;;;18.85;55.16;100798.41;5029022;28;20047;-88
2022/09/07 08:26:32;;;;;;;7.18;3.90;;;;;;;18.89;54.96;100797.13;5050622;28;20059;-88
2022/09/07 08:29:02;;;;;;;11.43;4.45;;;;;;;18.98;55.43;100806.13;5038150;28;20086;-89
2022/09/07 08:31:32;;;;;;;7.20;3.35;;;;;;;19.08;54.49;100803.44;5051916;28;20048;-89
2022/09/07 08:34:14;;;;;;;7.38;4.07;;;;;;;19.16;54.44;100793.75;5051639;28;20094;-89
2022/09/07 08:36:42;;;;;;;10.65;4.05;;;;;;;19.28;53.80;100801.63;5034688;28;20135;-90
2022/09/07 08:39:12;;;;;;;15.25;4.78;;;;;;;19.36;54.81;100805.28;5072489;28;20060;-89
2022/09/07 08:42:37;;;;;;;9.25;3.92;;;;;;;19.46;54.26;100803.44;5033016;28;20037;-91
2022/09/07 08:45:14;;;;;;;15.38;4.10;;;;;;;19.61;55.10;100797.66;5007971;28;20181;-91
2022/09/07 08:47:49;;;;;;;7.72;4.22;;;;;;;19.71;53.96;100795.78;4990328;28;20046;-88
2022/09/07 08:50:32;;;;;;;7.68;3.85;;;;;;;19.78;53.69;100790.72;5051682;28;20051;-89
2022/09/07 08:53:18;;;;;;;6.70;4.15;;;;;;;19.91;53.73;100775.22;5043190;28;20064;-90
2022/09/07 08:56:10;;;;;;;7.22;3.70;;;;;;;20.00;53.34;100768.97;5042373;28;20044;-88
2022/09/07 08:58:46;;;;;;;8.63;4.35;;;;;;;20.10;53.72;100758.25;5052844;28;20048;-89
2022/09/07 09:01:21;;;;;;;10.80;4.28;;;;;;;20.18;53.88;100761.84;5036906;28;20048;-90
2022/09/07 09:04:00;;;;;;;13.88;4.05;;;;;;;20.27;52.58;100757.44;5034470;28;20048;-90
2022/09/07 09:07:16;;;;;;;10.45;4.22;;;;;;;20.43;53.25;100767.47;5050826;28;20101;-91
2022/09/07 09:10:13;;;;;;;11.05;4.05;;;;;;;20.49;53.24;100758.88;5042676;28;20139;-90
2022/09/07 09:13:04;;;;;;;15.02;4.95;;;;;;;20.65;54.01;100756.34;5033623;28;20131;-90
2022/09/07 09:16:05;;;;;;;9.57;4.72;;;;;;;20.73;53.40;100756.44;5045453;28;20072;-90
2022/09/07 09:18:46;;;;;;;11.82;4.35;;;;;;;20.85;53.01;100749.03;5045297;28;20044;-92
2022/09/07 09:21:18;;;;;;;13.70;4.60;;;;;;;20.92;53.02;100755.44;5035159;28;20061;-91
2022/09/07 09:23:48;;;;;;;11.57;4.40;;;;;;;21.00;52.95;100757.34;5051359;28;20044;-91
2022/09/07 09:26:28;;;;;;;13.38;5.05;;;;;;;21.13;52.25;100760.47;5030212;28;20111;-91
2022/09/07 09:29:22;;;;;;;7.22;4.43;;;;;;;21.16;52.36;100754.81;5032508;28;20044;-93
2022/09/07 09:31:53;;;;;;;7.68;3.95;;;;;;;21.21;52.38;100763.22;5030618;28;20048;-91
2022/09/07 09:34:22;;;;;;;7.30;4.47;;;;;;;21.29;52.26;100762.41;5035293;28;20056;-90
2022/09/07 09:36:59;;;;;;;5.90;4.55;;;;;;;21.36;52.44;100762.66;5035885;28;20048;-91
2022/09/07 09:39:36;;;;;;;6.38;4.32;;;;;;;21.44;52.19;100755.53;5037172;28;20049;-91
2022/09/07 09:42:26;;;;;;;8.88;4.40;;;;;;;21.52;52.21;100749.38;5033630;28;20041;-91
2022/09/07 09:45:20;;;;;;;11.57;4.78;;;;;;;21.64;52.27;100739.22;5048053;28;20163;-92
2022/09/07 09:48:00;;;;;;;12.17;4.67;;;;;;;21.73;51.94;100749.81;5040679;28;20164;-91
2022/09/07 09:50:36;;;;;;;10.18;4.20;;;;;;;21.86;51.81;100743.19;5029233;28;20049;-91
2022/09/07 09:53:31;;;;;;;10.25;4.10;;;;;;;21.96;51.97;100733.19;5039214;28;20085;-91
2022/09/07 09:56:01;;;;;;;7.63;4.18;;;;;;;22.05;51.52;100737.56;5047528;28;20045;-91
2022/09/07 09:58:44;;;;;;;7.78;4.18;;;;;;;22.15;51.44;100737.47;5045742;28;20044;-91
2022/09/07 10:01:34;;;;;;;10.83;4.40;;;;;;;22.24;51.44;100737.34;5047378;28;20120;-92
2022/09/07 10:04:33;;;;;;;7.10;4.25;;;;;;;22.35;51.47;100732.66;5075298;28;20071;-90
2022/09/07 10:07:25;;;;;;;8.70;4.03;;;;;;;22.47;50.66;100724.16;5052724;28;20048;-93
2022/09/07 10:10:15;;;;;;;6.65;3.97;;;;;;;22.59;51.04;100716.59;5057492;28;20056;-90
2022/09/07 10:12:57;;;;;;;8.63;4.60;;;;;;;22.75;50.84;100723.84;5063016;28;20044;-90
2022/09/07 10:15:41;;;;;;;7.90;4.68;;;;;;;22.85;50.82;100718.31;5049351;28;20052;-90
2022/09/07 10:18:41;;;;;;;7.22;4.68;;;;;;;22.98;50.74;100719.50;5064397;28;20053;-89
2022/09/07 10:21:16;;;;;;;8.52;4.22;;;;;;;23.14;50.65;100715.94;5042091;28;20051;-90
2022/09/07 10:24:03;;;;;;;8.60;4.97;;;;;;;23.25;50.58;100710.25;5041913;28;20530;-90
2022/09/07 10:26:36;;;;;;;6.63;5.10;;;;;;;23.33;50.72;100709.41;5041938;28;20041;-91
2022/09/07 10:29:14;;;;;;;9.77;5.00;;;;;;;23.47;50.54;100702.47;5049826;28;20037;-92
2022/09/07 10:32:04;;;;;;;5.13;4.60;;;;;;;23.64;50.13;100697.88;5032925;28;20049;-91
2022/09/07 10:34:54;;;;;;;9.38;4.65;;;;;;;23.74;49.83;100703.94;5040171;28;20032;-89
2022/09/07 10:37:48;;;;;;;7.82;4.85;;;;;;;23.81;49.73;100698.69;5028375;28;20048;-92
2022/09/07 10:40:35;;;;;;;9.07;4.95;;;;;;;23.81;49.63;100694.13;5032047;28;20047;-93
2022/09/07 10:43:37;;;;;;;4.95;3.90;;;;;;;23.79;49.55;100701.53;5064587;28;20044;-91
2022/09/07 10:46:37;;;;;;;6.07;4.55;;;;;;;23.79;49.53;100700.72;5039426;28;20147;-91
2022/09/07 10:49:33;;;;;;;7.60;4.60;;;;;;;23.75;50.10;100711.81;5049309;28;20712;-89
2022/09/07 10:52:19;;;;;;;8.63;4.93;;;;;;;23.77;49.56;100700.03;5050116;28;20040;-90
2022/09/07 10:54:59;;;;;;;9.98;4.75;;;;;;;23.79;49.54;100703.41;5040216;28;20040;-90
2022/09/07 10:58:13;;;;;;;10.40;4.57;;;;;;;23.71;49.93;100707.78;5041191;28;20037;-90
2022/09/07 11:01:05;;;;;;;10.23;5.38;;;;;;;23.79;49.89;100700.72;5025929;28;20102;-90
2022/09/07 11:03:47;;;;;;;8.80;4.90;;;;;;;23.80;50.15;100705.06;5024108;28;20048;-90
2022/09/07 11:06:21;;;;;;;9.75;5.60;;;;;;;23.72;50.25;100696.00;5021033;28;20055;-91
2022/09/07 11:09:32;;;;;;;8.75;5.07;;;;;;;23.77;50.22;100687.44;5061054;28;20261;-89
2022/09/07 11:12:09;;;;;;;9.80;5.40;;;;;;;23.79;50.33;100681.91;5047098;28;20052;-91
2022/09/07 11:15:13;;;;;;;7.72;4.95;;;;;;;23.84;49.98;100677.66;5044670;28;20052;-89
2022/09/07 11:17:55;;;;;;;6.68;4.90;;;;;;;23.90;50.11;100681.50;5017727;28;20059;-92
2022/09/07 11:20:35;;;;;;;9.38;4.68;;;;;;;23.99;50.05;100680.44;5036621;28;20099;-91
2022/09/07 11:23:17;;;;;;;7.68;5.55;;;;;;;23.98;50.97;100682.28;5030297;28;20041;-91
2022/09/07 11:26:18;;;;;;;8.38;5.32;;;;;;;24.04;50.32;100688.81;5041686;28;20128;-90
2022/09/07 11:28:51;;;;;;;7.43;4.82;;;;;;;24.11;50.27;100689.78;5022722;28;20120;-92
2022/09/07 11:31:47;;;;;;;7.72;5.00;;;;;;;24.21;50.15;100684.19;5040473;28;20041;-91
2022/09/07 11:34:21;;;;;;;14.48;5.85;;;;;;;24.30;49.94;100687.66;5069577;28;20044;-92
2022/09/07 11:37:01;;;;;;;7.82;4.72;;;;;;;24.39;49.92;100694.69;5043389;28;20041;-91
2022/09/07 11:40:01;;;;;;;8.48;4.53;;;;;;;24.49;49.42;100704.19;5052723;28;20041;-91
2022/09/07 11:42:33;;;;;;;10.15;4.95;;;;;;;24.64;49.45;100695.38;5053184;28;20044;-91
2022/09/07 11:45:32;;;;;;;9.93;4.80;;;;;;;24.77;49.00;100692.91;5052733;28;20045;-90
2022/09/07 11:48:29;;;;;;;9.10;4.78;;;;;;;24.92;48.70;100690.22;5046291;28;20032;-91
2022/09/07 11:51:23;;;;;;;8.43;5.03;;;;;;;24.94;48.82;100683.63;5047839;28;20052;-92
2022/09/07 11:53:58;;;;;;;6.07;4.63;;;;;;;24.93;48.63;100683.81;5047830;28;20051;-91
2022/09/07 11:56:33;;;;;;;6.20;4.95;;;;;;;24.99;47.89;100678.56;5033231;28;20044;-91
2022/09/07 11:59:34;;;;;;;8.00;6.28;;;;;;;24.95;48.92;100685.31;5028956;28;20048;-90
2022/09/07 12:02:26;;;;;;;7.30;5.00;;;;;;;24.94;48.88;100685.50;5048474;28;20064;-91
2022/09/07 12:05:52;;;;;;;10.48;5.00;;;;;;;24.96;49.03;100691.56;5057990;28;20056;-92
2022/09/07 12:09:01;;;;;;;6.35;4.68;;;;;;;24.98;48.59;100687.63;5031004;28;20359;-94
2022/09/07 12:11:35;;;;;;;;;;;;;;;25.04;49.00;100682.53;5056651;28;20080;-91
2022/09/07 12:14:14;;;;;;;13.20;5.13;;;;;;;25.06;48.70;100677.81;5059399;28;19957;-90
2022/09/07 12:16:58;;;;;;;8.27;5.78;;;;;;;25.08;48.89;100684.75;5046656;28;20075;-91
2022/09/07 12:19:28;;;;;;;6.45;5.40;;;;;;;25.16;48.79;100675.72;5053622;28;20092;-90
2022/09/07 12:21:58;;;;;;;7.60;4.85;;;;;;;25.16;48.89;100667.63;5060380;28;20041;-90
2022/09/07 12:24:45;;;;;;;10.20;5.40;;;;;;;25.23;48.82;100664.03;5034376;28;20067;-91
2022/09/07 12:27:25;;;;;;;9.68;5.05;;;;;;;25.40;48.31;100661.16;5022970;28;20040;-91
2022/09/07 12:30:04;;;;;;;11.93;5.13;;;;;;;25.58;49.05;100661.63;5063983;28;20044;-90
2022/09/07 12:32:51;;;;;;;7.20;4.95;;;;;;;25.72;48.76;100663.44;5058531;28;20063;-90
2022/09/07 12:35:28;;;;;;;8.98;5.88;;;;;;;25.72;48.27;100663.44;5067994;28;20064;-90
2022/09/07 12:38:29;;;;;;;8.20;5.32;;;;;;;25.75;47.78;100660.34;5049152;28;20562;-89
2022/09/07 12:41:20;;;;;;;9.85;4.93;;;;;;;25.82;47.56;100656.97;5039641;28;20068;-90
2022/09/07 12:43:53;;;;;;;5.78;4.68;;;;;;;25.85;47.83;100656.56;5069331;28;20037;-90
2022/09/07 12:46:33;;;;;;;14.95;5.30;;;;;;;25.86;47.47;100652.84;5040364;28;20045;-91
2022/09/07 12:49:07;;;;;;;6.70;5.03;;;;;;;25.88;47.72;100654.31;5058077;28;20338;-89
2022/09/07 12:51:37;;;;;;;15.60;6.05;;;;;;;25.83;48.21;100648.66;5068443;28;20041;-90
2022/09/07 12:54:36;;;;;;;6.63;4.60;;;;;;;25.86;48.09;100652.84;5026680;28;20094;-90
2022/09/07 12:57:21;;;;;;;10.23;5.43;;;;;;;25.78;48.24;100643.00;5044901;28;20066;-90
2022/09/07 13:00:06;;;;;;;7.72;5.22;;;;;;;25.64;48.50;100636.59;5058641;28;20044;-90
2022/09/07 13:03:11;;;;;;;7.90;5.10;;;;;;;25.57;48.61;100634.81;5056601;28;20094;-90
2022/09/07 13:06:26;;;;;;;8.13;5.35;;;;;;;25.56;47.60;100630.47;5046096;28;20041;-89
2022/09/07 13:09:23;;;;;;;7.40;4.88;;;;;;;25.47;48.77;100640.50;5035871;28;20084;-90
2022/09/07 13:11:51;;;;;;;10.30;5.53;;;;;;;25.49;48.54;100633.09;5052643;28;20049;-91
2022/09/07 13:14:31;;;;;;;11.10;6.05;;;;;;;25.45;48.89;100629.09;5038755;28;20041;-92
2022/09/07 13:17:35;;;;;;;7.53;5.60;;;;;;;25.41;49.04;100633.19;5047332;28;20045;-90
2022/09/07 13:20:05;;;;;;;8.32;5.10;;;;;;;25.36;48.82;100631.03;5040226;28;20071;-90
2022/09/07 13:22:33;;;;;;;7.47;5.13;;;;;;;25.36;49.34;100624.81;5044766;28;20505;-88
2022/09/07 13:25:55;;;;;;;10.00;5.20;;;;;;;25.35;48.96;100632.06;5043488;28;20076;-89
2022/09/07 13:28:51;;;;;;;6.70;5.18;;;;;;;25.31;49.02;100629.91;5051082;28;20041;-90
2022/09/07 13:31:53;;;;;;;8.95;5.97;;;;;;;25.29;49.37;100629.28;5058635;28;20487;-90
2022/09/07 13:35:06;;;;;;;7.85;5.28;;;;;;;25.23;49.22;100637.09;5035800;28;20487;-89
2022/09/07 13:37:52;;;;;;;10.57;6.13;;;;;;;25.21;49.81;100628.34;5059302;28;20048;-88
2022/09/07 13:40:50;;;;;;;6.95;5.53;;;;;;;25.26;49.25;100617.00;5061905;28;20115;-88
2022/09/07 13:43:57;;;;;;;9.75;5.18;;;;;;;25.32;49.05;100613.56;5032005;28;20108;-89
2022/09/07 13:46:57;;;;;;;8.90;5.50;;;;;;;25.44;48.71;100609.38;5062570;28;20131;-89
2022/09/07 13:50:30;;;;;;;6.30;4.97;;;;;;;25.58;48.46;100613.09;5053101;28;20061;-89
2022/09/07 13:54:02;;;;;;;7.50;5.43;;;;;;;26.10;48.24;100617.44;5058582;28;20041;-89
2022/09/07 13:57:58;;;;;;;5.82;4.63;;;;;;;26.62;46.86;100615.44;5041327;28;20045;-90
2022/09/07 14:00:58;;;;;;;6.05;5.05;;;;;;;26.93;46.83;100620.47;5053389;28;20071;-90
2022/09/07 14:04:21;;;;;;;10.63;5.45;;;;;;;27.29;45.70;100616.75;5083051;28;20062;-90
2022/09/07 14:10:28;;;;;;;8.73;4.95;;;;;;;27.31;45.05;100610.09;5038249;28;20075;-88
2022/09/07 14:13:28;;;;;;;6.53;4.90;;;;;;;27.14;45.65;100623.09;5037752;28;20076;-89
2022/09/07 14:16:19;;;;;;;7.90;4.82;;;;;;;26.99;45.70;100612.38;5052590;28;20059;-87
2022/09/07 14:19:18;;;;;;;9.98;5.53;;;;;;;26.89;45.34;100616.50;5049021;28;20113;-87
2022/09/07 14:26:37;;;;;;;8.65;5.28;;;;;;;27.03;45.34;100604.72;5067639;28;20086;-89
2022/09/07 14:29:05;;;;;;;9.20;5.22;;;;;;;27.05;45.35;100604.53;5011074;28;20088;-88
2022/09/07 14:32:12;;;;;;;7.68;4.95;;;;;;;27.01;45.55;100606.78;5020145;28;20054;-91
2022/09/07 14:34:57;;;;;;;7.75;4.80;;;;;;;26.90;45.61;100600.06;5009566;28;20058;-89
2022/09/07 14:37:38;;;;;;;8.00;5.40;;;;;;;26.75;46.08;100591.25;5035676;28;20127;-86
2022/09/07 14:40:30;;;;;;;7.90;4.78;;;;;;;26.65;45.64;100598.84;5036662;28;20036;-87
2022/09/07 14:43:31;;;;;;;11.55;4.43;;;;;;;26.55;46.00;100598.34;5037289;28;21336;-91
2022/09/07 14:47:03;;;;;;;5.95;5.07;;;;;;;26.36;46.61;100599.81;5033662;28;20084;-88
2022/09/07 14:50:04;;;;;;;6.65;4.47;;;;;;;26.24;46.98;100594.09;5027457;28;20117;-88
2022/09/07 14:53:21;;;;;;;;;;;;;;;;;;;;;
2022/09/07 14:56:58;;;;;;;9.95;5.18;;;;;;;26.14;46.69;100593.59;5046884;28;20053;-91
2022/09/07 14:59:49;;;;;;;6.32;4.53;;;;;;;26.12;46.91;100592.97;5059014;28;20040;-89
2022/09/07 15:02:44;;;;;;;;;;;;;;;;;;;;;
2022/09/07 15:05:31;;;;;;;5.90;4.90;;;;;;;26.05;47.18;100592.88;5050459;28;20033;-88
2022/09/07 15:08:39;;;;;;;7.95;4.93;;;;;;;26.15;46.99;100592.56;5036983;28;20048;-90
2022/09/07 15:11:37;;;;;;;7.38;5.05;;;;;;;26.08;47.67;100594.38;5031383;28;20049;-88
2022/09/07 15:14:20;;;;;;;10.80;5.45;;;;;;;26.09;46.86;100582.56;5040572;28;20409;-88
2022/09/07 15:17:19;;;;;;;10.57;5.25;;;;;;;26.24;46.72;100583.31;5042604;28;20056;-88
2022/09/07 15:20:52;;;;;;;12.23;5.47;;;;;;;26.57;46.69;100578.25;5053543;28;20053;-90
2022/09/07 15:24:17;;;;;;;8.77;5.00;;;;;;;26.77;45.65;100581.91;5025272;28;20393;-91
2022/09/07 15:27:39;;;;;;;9.15;5.05;;;;;;;26.79;45.67;100586.25;5044444;28;20129;-92
2022/09/07 15:30:24;;;;;;;12.38;5.20;;;;;;;26.75;45.51;100583.16;5016673;28;20055;-90
2022/09/07 15:33:47;;;;;;;17.58;6.07;;;;;;;26.65;45.66;100571.84;5057292;28;20033;-88
2022/09/07 15:36:31;;;;;;;;;;;;;;;;;;;;;
2022/09/07 15:39:46;;;;;;;15.48;6.20;;;;;;;27.01;46.04;100567.09;5055185;28;20044;-89
2022/09/07 15:42:44;;;;;;;13.77;6.60;;;;;;;27.43;44.80;100565.25;5056915;28;20380;-91
2022/09/07 15:45:35;;;;;;;15.65;6.38;;;;;;;27.75;44.31;100562.88;5023388;28;20510;-91
2022/09/07 15:48:26;;;;;;;7.07;5.35;;;;;;;28.20;43.47;100568.59;5038359;28;20139;-88
2022/09/07 15:51:28;;;;;;;12.65;5.90;;;;;;;28.45;42.47;100564.22;5043379;28;20041;-89
2022/09/07 15:54:59;;;;;;;9.93;5.10;;;;;;;28.20;42.83;100558.59;5062837;28;20418;-90
2022/09/07 15:57:42;;;;;;;11.60;5.50;;;;;;;27.80;43.12;100557.69;5023077;28;20445;-90
2022/09/07 16:00:57;;;;;;;8.82;5.75;;;;;;;27.64;43.47;100558.84;5028043;28;20475;-88
2022/09/07 16:04:22;;;;;;;11.10;8.20;;;;;;;27.41;44.04;100552.97;5056771;28;20037;-90
2022/09/07 16:07:21;;;;;;;19.98;9.50;;;;;;;27.30;44.16;100545.44;5047648;28;20055;-89
2022/09/07 16:10:20;;;;;;;15.30;8.02;;;;;;;27.13;44.25;100547.66;5021638;28;20037;-90
2022/09/07 16:13:04;;;;;;;32.45;16.05;;;;;;;26.81;45.12;100547.25;4991510;28;20555;-90
2022/09/07 16:15:47;;;;;;;27.85;14.93;;;;;;;26.66;45.66;100544.66;5008495;28;20152;-90
2022/09/07 16:18:38;;;;;;;45.28;24.23;;;;;;;26.45;45.80;100548.22;4899303;28;20062;-89
2022/09/07 16:21:14;;;;;;;28.48;17.88;;;;;;;26.42;46.34;100539.66;4990655;28;20050;-85
2022/09/07 16:23:52;;;;;;;10.45;6.07;;;;;;;26.29;46.56;100545.78;4998021;28;20045;-89
2022/09/07 16:26:23;;;;;;;25.67;14.63;;;;;;;26.21;46.51;100540.53;5024621;28;20064;-89
2022/09/07 16:28:56;;;;;;;11.15;6.72;;;;;;;26.08;47.07;100546.66;5035968;28;20029;-91
2022/09/07 16:31:26;;;;;;;8.05;5.53;;;;;;;25.91;47.08;100546.06;5033310;28;20060;-89
2022/09/07 16:34:21;;;;;;;;;;;;;;;;;;;;;
2022/09/07 16:36:51;;;;;;;9.93;7.13;;;;;;;25.83;47.22;100530.00;5050604;28;20044;-90
2022/09/07 16:39:25;;;;;;;13.63;7.22;;;;;;;25.83;47.42;100521.09;5004679;28;20473;-89
2022/09/07 16:42:16;;;;;;;10.18;5.78;;;;;;;25.72;47.83;100515.16;5008180;28;20432;-91
2022/09/07 16:44:51;;;;;;;10.45;6.80;;;;;;;25.64;47.95;100509.88;4997688;28;20051;-90
2022/09/07 16:47:43;;;;;;;7.78;6.03;;;;;;;25.59;48.01;100511.47;4996507;28;20053;-90
2022/09/07 16:50:19;;;;;;;8.95;5.78;;;;;;;25.48;48.54;100515.50;5021682;28;20144;-89
2022/09/07 16:53:01;;;;;;;9.40;5.95;;;;;;;25.40;48.67;100512.94;5042280;28;20108;-91
2022/09/07 16:55:37;;;;;;;9.57;4.93;;;;;;;25.31;48.42;100506.81;5044627;28;20068;-91
2022/09/07 16:58:18;;;;;;;10.98;7.50;;;;;;;25.32;48.83;100507.66;5030236;28;20049;-92
2022/09/07 17:01:17;;;;;;;12.80;5.63;;;;;;;25.29;48.46;100513.41;5062205;28;20052;-89